sensor_id;sensor_type;location;lat;lon;timestamp;pressure;altitude;pressure_sealevel;temperature;humidity
20930;BME280;21895;47.072;15.132;2023-05-02T00:00:52;96662.00;;;14.08;68.48
20930;BME280;21895;47.072;15.132;2023-05-02T00:03:18;96660.00;;;14.09;68.36
20930;BME280;21895;47.072;15.132;2023-05-02T00:05:45;96664.00;;;14.06;68.42
20930;BME280;21895;47.072;15.132;2023-05-02T00:08:12;96665.00;;;14.05;68.66
20930;BME280;21895;47.072;15.132;2023-05-02T00:10:38;96669.00;;;14.09;68.49
20930;BME280;21895;47.072;15.132;2023-05-02T00:13:05;96660.00;;;14.02;69.40
20930;BME280;21895;47.072;15.132;2023-05-02T00:15:31;96658.00;;;13.99;70.77
20930;BME280;21895;47.072;15.132;2023-05-02T00:17:58;96661.00;;;13.99;71.09
20930;BME280;21895;47.072;15.132;2023-05-02T00:20:25;96656.00;;;14.05;70.95
20930;BME280;21895;47.072;15.132;2023-05-02T00:22:52;96647.00;;;13.99;70.98
20930;BME280;21895;47.072;15.132;2023-05-02T00:25:18;96651.00;;;14.03;71.29
20930;BME280;21895;47.072;15.132;2023-05-02T00:27:45;96648.00;;;14.13;71.28
20930;BME280;21895;47.072;15.132;2023-05-02T00:30:12;96650.00;;;14.04;72.02
20930;BME280;21895;47.072;15.132;2023-05-02T00:32:39;96648.00;;;14.05;72.14
20930;BME280;21895;47.072;15.132;2023-05-02T00:35:06;96645.00;;;13.99;72.67
20930;BME280;21895;47.072;15.132;2023-05-02T00:37:33;96643.00;;;14.03;71.72
20930;BME280;21895;47.072;15.132;2023-05-02T00:40:00;96640.00;;;14.01;72.69
20930;BME280;21895;47.072;15.132;2023-05-02T00:42:27;96643.00;;;14.01;73.22
20930;BME280;21895;47.072;15.132;2023-05-02T00:44:57;96635.00;;;14.07;71.33
20930;BME280;21895;47.072;15.132;2023-05-02T00:47:23;96641.00;;;14.08;70.81
20930;BME280;21895;47.072;15.132;2023-05-02T00:49:50;96642.00;;;14.09;71.68
20930;BME280;21895;47.072;15.132;2023-05-02T00:52:17;96638.00;;;14.01;73.33
20930;BME280;21895;47.072;15.132;2023-05-02T00:54:43;96639.00;;;13.95;73.98
20930;BME280;21895;47.072;15.132;2023-05-02T00:57:10;96637.00;;;13.89;73.96
20930;BME280;21895;47.072;15.132;2023-05-02T00:59:37;96645.00;;;13.84;73.86
20930;BME280;21895;47.072;15.132;2023-05-02T01:02:58;96643.00;;;13.79;73.96
20930;BME280;21895;47.072;15.132;2023-05-02T01:05:48;96642.00;;;13.85;73.15
20930;BME280;21895;47.072;15.132;2023-05-02T01:08:41;96633.00;;;13.90;72.48
20930;BME280;21895;47.072;15.132;2023-05-02T01:11:19;96636.00;;;13.82;72.34
20930;BME280;21895;47.072;15.132;2023-05-02T01:13:49;96639.00;;;13.90;71.36
20930;BME280;21895;47.072;15.132;2023-05-02T01:16:19;96639.00;;;13.92;70.93
20930;BME280;21895;47.072;15.132;2023-05-02T01:18:50;96639.00;;;13.85;70.98
20930;BME280;21895;47.072;15.132;2023-05-02T01:21:18;96635.00;;;13.64;72.05
20930;BME280;21895;47.072;15.132;2023-05-02T01:24:12;96628.00;;;13.63;72.05
20930;BME280;21895;47.072;15.132;2023-05-02T01:27:21;96636.00;;;13.82;71.22
20930;BME280;21895;47.072;15.132;2023-05-02T01:29:51;96632.00;;;13.71;71.74
20930;BME280;21895;47.072;15.132;2023-05-02T01:32:22;96626.00;;;13.62;72.27
20930;BME280;21895;47.072;15.132;2023-05-02T01:34:52;96625.00;;;13.65;71.88
20930;BME280;21895;47.072;15.132;2023-05-02T01:37:21;96626.00;;;13.80;71.38
20930;BME280;21895;47.072;15.132;2023-05-02T01:39:51;96628.00;;;13.63;71.90
20930;BME280;21895;47.072;15.132;2023-05-02T01:42:20;96625.00;;;13.65;72.04
20930;BME280;21895;47.072;15.132;2023-05-02T01:44:50;96628.00;;;13.72;71.98
20930;BME280;21895;47.072;15.132;2023-05-02T01:47:20;96625.00;;;13.71;71.80
20930;BME280;21895;47.072;15.132;2023-05-02T01:49:48;96625.00;;;13.75;71.48
20930;BME280;21895;47.072;15.132;2023-05-02T01:52:19;96628.00;;;13.73;71.55
20930;BME280;21895;47.072;15.132;2023-05-02T01:54:50;96628.00;;;13.85;70.97
20930;BME280;21895;47.072;15.132;2023-05-02T01:57:17;96628.00;;;13.85;71.06
20930;BME280;21895;47.072;15.132;2023-05-02T01:59:46;96621.00;;;13.60;71.88
20930;BME280;21895;47.072;15.132;2023-05-02T02:02:15;96620.00;;;13.65;72.06
20930;BME280;21895;47.072;15.132;2023-05-02T02:04:44;96626.00;;;13.58;72.51
20930;BME280;21895;47.072;15.132;2023-05-02T02:07:13;96619.00;;;13.61;72.32
20930;BME280;21895;47.072;15.132;2023-05-02T02:09:40;96620.00;;;13.67;72.39
20930;BME280;21895;47.072;15.132;2023-05-02T02:15:33;96623.00;;;13.55;72.46
20930;BME280;21895;47.072;15.132;2023-05-02T02:18:10;96619.00;;;13.52;73.02
20930;BME280;21895;47.072;15.132;2023-05-02T02:20:42;96614.00;;;13.68;72.45
20930;BME280;21895;47.072;15.132;2023-05-02T02:23:11;96606.00;;;13.61;72.46
20930;BME280;21895;47.072;15.132;2023-05-02T02:25:41;96608.00;;;13.61;72.89
20930;BME280;21895;47.072;15.132;2023-05-02T02:28:08;96611.00;;;13.56;73.02
20930;BME280;21895;47.072;15.132;2023-05-02T02:30:35;96613.00;;;13.43;73.46
20930;BME280;21895;47.072;15.132;2023-05-02T02:33:02;96610.00;;;13.48;73.95
20930;BME280;21895;47.072;15.132;2023-05-02T02:35:37;96608.00;;;13.54;73.38
20930;BME280;21895;47.072;15.132;2023-05-02T02:40:03;96607.00;;;13.64;72.99
20930;BME280;21895;47.072;15.132;2023-05-02T02:51:21;96608.00;;;13.56;73.68
20930;BME280;21895;47.072;15.132;2023-05-02T02:54:30;96612.00;;;13.56;74.32
20930;BME280;21895;47.072;15.132;2023-05-02T02:57:33;96615.00;;;13.61;73.82
20930;BME280;21895;47.072;15.132;2023-05-02T03:00:17;96607.00;;;13.65;73.62
20930;BME280;21895;47.072;15.132;2023-05-02T03:02:46;96617.00;;;13.83;72.63
20930;BME280;21895;47.072;15.132;2023-05-02T03:05:14;96617.00;;;14.04;71.68
20930;BME280;21895;47.072;15.132;2023-05-02T03:07:41;96608.00;;;13.84;72.12
20930;BME280;21895;47.072;15.132;2023-05-02T03:10:08;96620.00;;;13.70;72.92
20930;BME280;21895;47.072;15.132;2023-05-02T03:12:34;96622.00;;;13.59;73.57
20930;BME280;21895;47.072;15.132;2023-05-02T03:17:31;96627.00;;;13.57;74.04
20930;BME280;21895;47.072;15.132;2023-05-02T03:19:58;96632.00;;;13.52;74.93
20930;BME280;21895;47.072;15.132;2023-05-02T03:22:24;96626.00;;;13.47;75.33
20930;BME280;21895;47.072;15.132;2023-05-02T03:24:51;96631.00;;;13.40;75.99
20930;BME280;21895;47.072;15.132;2023-05-02T03:27:17;96629.00;;;13.51;75.47
20930;BME280;21895;47.072;15.132;2023-05-02T03:29:44;96633.00;;;13.54;76.17
20930;BME280;21895;47.072;15.132;2023-05-02T03:32:10;96635.00;;;13.57;76.26
20930;BME280;21895;47.072;15.132;2023-05-02T03:34:37;96635.00;;;13.59;75.58
20930;BME280;21895;47.072;15.132;2023-05-02T03:37:07;96637.00;;;13.57;75.71
20930;BME280;21895;47.072;15.132;2023-05-02T03:39:33;96638.00;;;13.58;75.58
20930;BME280;21895;47.072;15.132;2023-05-02T03:42:00;96631.00;;;13.55;75.89
20930;BME280;21895;47.072;15.132;2023-05-02T03:44:26;96637.00;;;13.55;75.83
20930;BME280;21895;47.072;15.132;2023-05-02T03:46:53;96632.00;;;13.55;76.25
20930;BME280;21895;47.072;15.132;2023-05-02T03:49:20;96634.00;;;13.46;77.10
20930;BME280;21895;47.072;15.132;2023-05-02T03:51:46;96635.00;;;13.42;77.09
20930;BME280;21895;47.072;15.132;2023-05-02T03:54:13;96636.00;;;13.48;76.88
20930;BME280;21895;47.072;15.132;2023-05-02T03:56:39;96636.00;;;13.45;77.21
20930;BME280;21895;47.072;15.132;2023-05-02T03:59:08;96637.00;;;13.42;77.87
20930;BME280;21895;47.072;15.132;2023-05-02T04:01:35;96637.00;;;13.40;77.82
20930;BME280;21895;47.072;15.132;2023-05-02T04:04:01;96636.00;;;13.40;78.37
20930;BME280;21895;47.072;15.132;2023-05-02T04:06:28;96641.00;;;13.43;78.53
20930;BME280;21895;47.072;15.132;2023-05-02T04:08:55;96643.00;;;13.44;78.42
20930;BME280;21895;47.072;15.132;2023-05-02T04:11:23;96645.00;;;13.43;78.77
20930;BME280;21895;47.072;15.132;2023-05-02T04:13:51;96652.00;;;13.40;78.73
20930;BME280;21895;47.072;15.132;2023-05-02T04:16:19;96649.00;;;13.43;78.37
20930;BME280;21895;47.072;15.132;2023-05-02T04:18:45;96654.00;;;13.44;78.32
20930;BME280;21895;47.072;15.132;2023-05-02T04:21:12;96655.00;;;13.31;78.54
20930;BME280;21895;47.072;15.132;2023-05-02T04:23:41;96655.00;;;13.33;79.01
20930;BME280;21895;47.072;15.132;2023-05-02T04:26:08;96657.00;;;13.29;79.03
20930;BME280;21895;47.072;15.132;2023-05-02T04:28:35;96662.00;;;13.27;79.00
20930;BME280;21895;47.072;15.132;2023-05-02T04:31:01;96663.00;;;13.30;79.20
20930;BME280;21895;47.072;15.132;2023-05-02T04:33:29;96664.00;;;13.42;78.73
20930;BME280;21895;47.072;15.132;2023-05-02T04:35:56;96662.00;;;13.65;77.98
20930;BME280;21895;47.072;15.132;2023-05-02T04:38:23;96670.00;;;13.66;77.65
20930;BME280;21895;47.072;15.132;2023-05-02T04:40:50;96670.00;;;13.59;78.03
20930;BME280;21895;47.072;15.132;2023-05-02T04:43:19;96674.00;;;13.53;78.60
20930;BME280;21895;47.072;15.132;2023-05-02T04:45:50;96679.00;;;13.49;78.85
20930;BME280;21895;47.072;15.132;2023-05-02T04:48:16;96681.00;;;13.51;79.34
20930;BME280;21895;47.072;15.132;2023-05-02T04:50:44;96681.00;;;13.56;79.50
20930;BME280;21895;47.072;15.132;2023-05-02T04:53:12;96681.00;;;13.62;78.99
20930;BME280;21895;47.072;15.132;2023-05-02T04:55:38;96681.00;;;13.77;78.60
20930;BME280;21895;47.072;15.132;2023-05-02T04:58:05;96686.00;;;13.84;78.35
20930;BME280;21895;47.072;15.132;2023-05-02T05:00:31;96691.00;;;13.83;78.52
20930;BME280;21895;47.072;15.132;2023-05-02T05:02:58;96694.00;;;13.86;77.96
20930;BME280;21895;47.072;15.132;2023-05-02T05:05:27;96702.00;;;13.74;78.54
20930;BME280;21895;47.072;15.132;2023-05-02T05:07:54;96705.00;;;13.73;78.66
20930;BME280;21895;47.072;15.132;2023-05-02T05:10:20;96703.00;;;13.73;78.83
20930;BME280;21895;47.072;15.132;2023-05-02T05:12:47;96713.00;;;13.83;78.95
20930;BME280;21895;47.072;15.132;2023-05-02T05:15:15;96705.00;;;13.89;78.32
20930;BME280;21895;47.072;15.132;2023-05-02T05:17:41;96709.00;;;13.97;78.37
20930;BME280;21895;47.072;15.132;2023-05-02T05:20:08;96711.00;;;14.05;78.23
20930;BME280;21895;47.072;15.132;2023-05-02T05:22:41;96708.00;;;14.13;78.17
20930;BME280;21895;47.072;15.132;2023-05-02T05:25:09;96719.00;;;14.19;77.99
20930;BME280;21895;47.072;15.132;2023-05-02T05:27:36;96717.00;;;14.14;78.50
20930;BME280;21895;47.072;15.132;2023-05-02T05:30:06;96727.00;;;14.12;78.71
20930;BME280;21895;47.072;15.132;2023-05-02T05:32:34;96731.00;;;14.05;78.95
20930;BME280;21895;47.072;15.132;2023-05-02T05:35:01;96728.00;;;14.08;78.53
20930;BME280;21895;47.072;15.132;2023-05-02T05:37:27;96725.00;;;14.09;78.31
20930;BME280;21895;47.072;15.132;2023-05-02T05:39:54;96733.00;;;14.12;78.49
20930;BME280;21895;47.072;15.132;2023-05-02T05:42:20;96732.00;;;14.13;78.53
20930;BME280;21895;47.072;15.132;2023-05-02T05:44:47;96737.00;;;14.22;78.65
20930;BME280;21895;47.072;15.132;2023-05-02T05:47:19;96744.00;;;14.27;78.40
20930;BME280;21895;47.072;15.132;2023-05-02T05:49:52;96750.00;;;14.30;78.36
20930;BME280;21895;47.072;15.132;2023-05-02T05:52:19;96753.00;;;14.33;78.01
20930;BME280;21895;47.072;15.132;2023-05-02T05:54:45;96750.00;;;14.33;77.65
20930;BME280;21895;47.072;15.132;2023-05-02T05:57:12;96752.00;;;14.35;78.14
20930;BME280;21895;47.072;15.132;2023-05-02T05:59:39;96758.00;;;14.45;77.92
20930;BME280;21895;47.072;15.132;2023-05-02T06:02:05;96762.00;;;14.44;78.34
20930;BME280;21895;47.072;15.132;2023-05-02T06:04:32;96761.00;;;14.44;78.48
20930;BME280;21895;47.072;15.132;2023-05-02T06:06:59;96755.00;;;14.41;79.00
20930;BME280;21895;47.072;15.132;2023-05-02T06:09:26;96763.00;;;14.28;79.86
20930;BME280;21895;47.072;15.132;2023-05-02T06:11:52;96767.00;;;14.25;79.93
20930;BME280;21895;47.072;15.132;2023-05-02T06:14:19;96767.00;;;14.27;79.98
20930;BME280;21895;47.072;15.132;2023-05-02T06:16:45;96774.00;;;14.31;79.78
20930;BME280;21895;47.072;15.132;2023-05-02T06:19:12;96776.00;;;14.29;80.41
20930;BME280;21895;47.072;15.132;2023-05-02T06:21:38;96775.00;;;14.24;80.76
20930;BME280;21895;47.072;15.132;2023-05-02T06:24:05;96785.00;;;14.25;80.77
20930;BME280;21895;47.072;15.132;2023-05-02T06:26:34;96776.00;;;14.31;80.88
20930;BME280;21895;47.072;15.132;2023-05-02T06:29:01;96779.00;;;14.35;80.81
20930;BME280;21895;47.072;15.132;2023-05-02T06:31:28;96792.00;;;14.45;80.65
20930;BME280;21895;47.072;15.132;2023-05-02T06:33:56;96783.00;;;14.44;80.52
20930;BME280;21895;47.072;15.132;2023-05-02T06:36:22;96786.00;;;14.37;80.62
20930;BME280;21895;47.072;15.132;2023-05-02T06:38:49;96783.00;;;14.46;80.19
20930;BME280;21895;47.072;15.132;2023-05-02T06:41:15;96788.00;;;14.40;80.58
20930;BME280;21895;47.072;15.132;2023-05-02T06:43:44;96792.00;;;14.43;80.61
20930;BME280;21895;47.072;15.132;2023-05-02T06:46:10;96793.00;;;14.57;80.34
20930;BME280;21895;47.072;15.132;2023-05-02T06:48:37;96796.00;;;14.65;79.83
20930;BME280;21895;47.072;15.132;2023-05-02T06:51:04;96803.00;;;14.53;80.21
20930;BME280;21895;47.072;15.132;2023-05-02T06:53:32;96804.00;;;14.47;80.71
20930;BME280;21895;47.072;15.132;2023-05-02T06:55:59;96810.00;;;14.49;80.84
20930;BME280;21895;47.072;15.132;2023-05-02T06:58:25;96810.00;;;14.51;80.60
20930;BME280;21895;47.072;15.132;2023-05-02T07:00:52;96811.00;;;14.34;81.45
20930;BME280;21895;47.072;15.132;2023-05-02T07:03:18;96812.00;;;14.28;81.94
20930;BME280;21895;47.072;15.132;2023-05-02T07:05:45;96804.00;;;14.26;81.85
20930;BME280;21895;47.072;15.132;2023-05-02T07:08:11;96807.00;;;14.49;80.20
20930;BME280;21895;47.072;15.132;2023-05-02T07:10:38;96804.00;;;14.50;81.04
20930;BME280;21895;47.072;15.132;2023-05-02T07:13:04;96806.00;;;14.57;80.51
20930;BME280;21895;47.072;15.132;2023-05-02T07:15:31;96799.00;;;14.69;79.98
20930;BME280;21895;47.072;15.132;2023-05-02T07:17:58;96793.00;;;14.53;80.47
20930;BME280;21895;47.072;15.132;2023-05-02T07:20:24;96795.00;;;14.34;81.25
20930;BME280;21895;47.072;15.132;2023-05-02T07:22:51;96793.00;;;14.25;81.57
20930;BME280;21895;47.072;15.132;2023-05-02T07:25:17;96792.00;;;14.31;82.00
20930;BME280;21895;47.072;15.132;2023-05-02T07:27:44;96795.00;;;14.43;81.57
20930;BME280;21895;47.072;15.132;2023-05-02T07:30:12;96797.00;;;14.53;81.43
20930;BME280;21895;47.072;15.132;2023-05-02T07:32:38;96799.00;;;14.54;81.76
20930;BME280;21895;47.072;15.132;2023-05-02T07:35:05;96794.00;;;14.67;81.80
20930;BME280;21895;47.072;15.132;2023-05-02T07:37:33;96795.00;;;14.75;81.61
20930;BME280;21895;47.072;15.132;2023-05-02T07:40:03;96802.00;;;14.89;80.40
20930;BME280;21895;47.072;15.132;2023-05-02T07:42:31;96807.00;;;14.93;80.85
20930;BME280;21895;47.072;15.132;2023-05-02T07:44:58;96814.00;;;15.07;80.89
20930;BME280;21895;47.072;15.132;2023-05-02T07:47:25;96819.00;;;15.12;80.34
20930;BME280;21895;47.072;15.132;2023-05-02T07:49:53;96823.00;;;15.25;79.72
20930;BME280;21895;47.072;15.132;2023-05-02T07:52:20;96833.00;;;15.33;79.27
20930;BME280;21895;47.072;15.132;2023-05-02T07:54:50;96841.00;;;15.44;78.56
20930;BME280;21895;47.072;15.132;2023-05-02T07:57:17;96837.00;;;15.45;77.96
20930;BME280;21895;47.072;15.132;2023-05-02T07:59:44;96841.00;;;15.56;78.04
20930;BME280;21895;47.072;15.132;2023-05-02T08:02:11;96833.00;;;15.65;78.41
20930;BME280;21895;47.072;15.132;2023-05-02T08:04:39;96830.00;;;15.82;77.76
20930;BME280;21895;47.072;15.132;2023-05-02T08:07:06;96837.00;;;15.88;76.64
20930;BME280;21895;47.072;15.132;2023-05-02T08:09:32;96837.00;;;15.96;74.95
20930;BME280;21895;47.072;15.132;2023-05-02T08:11:59;96840.00;;;16.02;74.84
20930;BME280;21895;47.072;15.132;2023-05-02T08:14:27;96843.00;;;16.17;74.16
20930;BME280;21895;47.072;15.132;2023-05-02T08:16:54;96843.00;;;16.17;73.29
20930;BME280;21895;47.072;15.132;2023-05-02T08:19:20;96836.00;;;16.23;73.66
20930;BME280;21895;47.072;15.132;2023-05-02T08:21:47;96838.00;;;16.37;72.77
20930;BME280;21895;47.072;15.132;2023-05-02T08:24:13;96837.00;;;16.44;72.96
20930;BME280;21895;47.072;15.132;2023-05-02T08:26:40;96839.00;;;16.65;71.29
20930;BME280;21895;47.072;15.132;2023-05-02T08:29:07;96843.00;;;16.74;70.47
20930;BME280;21895;47.072;15.132;2023-05-02T08:31:33;96851.00;;;16.73;71.33
20930;BME280;21895;47.072;15.132;2023-05-02T08:34:00;96843.00;;;16.56;71.98
20930;BME280;21895;47.072;15.132;2023-05-02T08:36:26;96836.00;;;16.51;71.66
20930;BME280;21895;47.072;15.132;2023-05-02T08:38:53;96840.00;;;16.44;71.81
20930;BME280;21895;47.072;15.132;2023-05-02T08:41:21;96837.00;;;16.27;74.07
20930;BME280;21895;47.072;15.132;2023-05-02T08:43:47;96844.00;;;16.19;74.96
20930;BME280;21895;47.072;15.132;2023-05-02T08:46:15;96847.00;;;16.16;74.88
20930;BME280;21895;47.072;15.132;2023-05-02T08:48:44;96851.00;;;16.37;73.69
20930;BME280;21895;47.072;15.132;2023-05-02T08:51:15;96848.00;;;16.32;73.40
20930;BME280;21895;47.072;15.132;2023-05-02T08:53:42;96855.00;;;16.33;74.00
20930;BME280;21895;47.072;15.132;2023-05-02T08:56:11;96862.00;;;16.27;74.32
20930;BME280;21895;47.072;15.132;2023-05-02T08:58:40;96858.00;;;16.30;73.96
20930;BME280;21895;47.072;15.132;2023-05-02T09:01:15;96860.00;;;16.48;73.54
20930;BME280;21895;47.072;15.132;2023-05-02T09:03:44;96857.00;;;16.66;73.05
20930;BME280;21895;47.072;15.132;2023-05-02T09:06:21;96854.00;;;16.92;72.01
20930;BME280;21895;47.072;15.132;2023-05-02T09:08:50;96857.00;;;17.02;71.20
20930;BME280;21895;47.072;15.132;2023-05-02T09:11:20;96858.00;;;17.35;70.81
20930;BME280;21895;47.072;15.132;2023-05-02T09:13:51;96851.00;;;17.54;70.00
20930;BME280;21895;47.072;15.132;2023-05-02T09:16:23;96852.00;;;17.69;67.17
20930;BME280;21895;47.072;15.132;2023-05-02T09:18:56;96848.00;;;17.78;67.04
20930;BME280;21895;47.072;15.132;2023-05-02T09:21:25;96852.00;;;17.69;66.43
20930;BME280;21895;47.072;15.132;2023-05-02T09:23:56;96854.00;;;17.56;67.19
20930;BME280;21895;47.072;15.132;2023-05-02T09:26:30;96854.00;;;17.54;67.75
20930;BME280;21895;47.072;15.132;2023-05-02T09:29:02;96859.00;;;17.39;67.66
20930;BME280;21895;47.072;15.132;2023-05-02T09:31:34;96851.00;;;17.27;68.97
20930;BME280;21895;47.072;15.132;2023-05-02T09:34:14;96863.00;;;17.31;68.94
20930;BME280;21895;47.072;15.132;2023-05-02T09:36:46;96862.00;;;17.17;68.55
20930;BME280;21895;47.072;15.132;2023-05-02T09:39:18;96868.00;;;17.08;69.67
20930;BME280;21895;47.072;15.132;2023-05-02T09:41:47;96874.00;;;16.96;69.66
20930;BME280;21895;47.072;15.132;2023-05-02T09:44:23;96873.00;;;17.02;70.09
20930;BME280;21895;47.072;15.132;2023-05-02T09:46:55;96877.00;;;17.03;69.10
20930;BME280;21895;47.072;15.132;2023-05-02T09:49:42;96877.00;;;17.04;69.63
20930;BME280;21895;47.072;15.132;2023-05-02T09:52:19;96887.00;;;16.85;69.98
20930;BME280;21895;47.072;15.132;2023-05-02T09:54:49;96876.00;;;16.84;70.42
20930;BME280;21895;47.072;15.132;2023-05-02T09:57:18;96881.00;;;16.85;70.22
20930;BME280;21895;47.072;15.132;2023-05-02T09:59:56;96872.00;;;16.74;71.26
20930;BME280;21895;47.072;15.132;2023-05-02T10:02:24;96874.00;;;16.75;70.12
20930;BME280;21895;47.072;15.132;2023-05-02T10:04:54;96868.00;;;16.63;71.94
20930;BME280;21895;47.072;15.132;2023-05-02T10:07:22;96871.00;;;16.75;71.75
20930;BME280;21895;47.072;15.132;2023-05-02T10:09:51;96876.00;;;16.75;72.52
20930;BME280;21895;47.072;15.132;2023-05-02T10:12:25;96879.00;;;16.77;72.31
20930;BME280;21895;47.072;15.132;2023-05-02T10:15:02;96885.00;;;16.75;70.90
20930;BME280;21895;47.072;15.132;2023-05-02T10:17:43;96875.00;;;16.85;70.56
20930;BME280;21895;47.072;15.132;2023-05-02T10:20:18;96880.00;;;16.89;70.51
20930;BME280;21895;47.072;15.132;2023-05-02T10:22:49;96883.00;;;16.93;71.44
20930;BME280;21895;47.072;15.132;2023-05-02T10:25:17;96876.00;;;17.02;72.05
20930;BME280;21895;47.072;15.132;2023-05-02T10:27:44;96879.00;;;17.09;71.32
20930;BME280;21895;47.072;15.132;2023-05-02T10:30:13;96878.00;;;17.12;70.83
20930;BME280;21895;47.072;15.132;2023-05-02T10:32:40;96874.00;;;17.30;70.17
20930;BME280;21895;47.072;15.132;2023-05-02T10:35:09;96868.00;;;17.45;70.09
20930;BME280;21895;47.072;15.132;2023-05-02T10:37:38;96873.00;;;17.41;68.65
20930;BME280;21895;47.072;15.132;2023-05-02T10:40:10;96867.00;;;17.61;66.86
20930;BME280;21895;47.072;15.132;2023-05-02T10:42:45;96871.00;;;17.76;66.94
20930;BME280;21895;47.072;15.132;2023-05-02T10:45:32;96867.00;;;17.93;65.73
20930;BME280;21895;47.072;15.132;2023-05-02T10:50:20;96869.00;;;18.29;65.40
20930;BME280;21895;47.072;15.132;2023-05-02T10:52:46;96868.00;;;18.25;62.56
20930;BME280;21895;47.072;15.132;2023-05-02T10:55:21;96868.00;;;17.82;62.45
20930;BME280;21895;47.072;15.132;2023-05-02T10:58:50;96861.00;;;18.10;64.11
20930;BME280;21895;47.072;15.132;2023-05-02T11:01:31;96868.00;;;18.16;64.06
20930;BME280;21895;47.072;15.132;2023-05-02T11:04:07;96866.00;;;18.08;63.62
20930;BME280;21895;47.072;15.132;2023-05-02T11:09:38;96866.00;;;17.84;63.40
20930;BME280;21895;47.072;15.132;2023-05-02T11:12:05;96869.00;;;17.57;64.31
20930;BME280;21895;47.072;15.132;2023-05-02T11:15:05;96862.00;;;17.50;63.67
20930;BME280;21895;47.072;15.132;2023-05-02T11:18:01;96863.00;;;17.58;63.71
20930;BME280;21895;47.072;15.132;2023-05-02T11:20:29;96862.00;;;17.70;65.14
20930;BME280;21895;47.072;15.132;2023-05-02T11:23:20;96870.00;;;17.78;64.49
20930;BME280;21895;47.072;15.132;2023-05-02T11:25:54;96863.00;;;17.82;63.80
20930;BME280;21895;47.072;15.132;2023-05-02T11:28:42;96864.00;;;17.98;63.08
20930;BME280;21895;47.072;15.132;2023-05-02T11:33:35;96862.00;;;17.89;62.76
20930;BME280;21895;47.072;15.132;2023-05-02T11:36:02;96873.00;;;18.04;62.12
20930;BME280;21895;47.072;15.132;2023-05-02T11:38:37;96869.00;;;18.08;62.51
20930;BME280;21895;47.072;15.132;2023-05-02T11:41:04;96866.00;;;18.20;61.44
20930;BME280;21895;47.072;15.132;2023-05-02T11:43:31;96872.00;;;18.22;61.50
20930;BME280;21895;47.072;15.132;2023-05-02T11:46:00;96876.00;;;18.31;62.12
20930;BME280;21895;47.072;15.132;2023-05-02T11:48:27;96868.00;;;18.30;62.14
20930;BME280;21895;47.072;15.132;2023-05-02T11:50:58;96875.00;;;18.45;61.67
20930;BME280;21895;47.072;15.132;2023-05-02T11:53:28;96871.00;;;18.30;60.58
20930;BME280;21895;47.072;15.132;2023-05-02T11:56:04;96876.00;;;18.39;60.17
20930;BME280;21895;47.072;15.132;2023-05-02T11:58:32;96881.00;;;18.24;62.00
20930;BME280;21895;47.072;15.132;2023-05-02T12:01:13;96885.00;;;17.93;61.33
20930;BME280;21895;47.072;15.132;2023-05-02T12:03:41;96877.00;;;17.93;63.44
20930;BME280;21895;47.072;15.132;2023-05-02T12:06:14;96880.00;;;17.96;62.26
20930;BME280;21895;47.072;15.132;2023-05-02T12:08:43;96882.00;;;17.93;63.38
20930;BME280;21895;47.072;15.132;2023-05-02T12:11:13;96878.00;;;18.02;63.09
20930;BME280;21895;47.072;15.132;2023-05-02T12:13:45;96883.00;;;17.96;62.51
20930;BME280;21895;47.072;15.132;2023-05-02T12:16:13;96882.00;;;17.86;63.49
20930;BME280;21895;47.072;15.132;2023-05-02T12:18:40;96882.00;;;17.88;62.79
20930;BME280;21895;47.072;15.132;2023-05-02T12:21:07;96883.00;;;17.95;61.95
20930;BME280;21895;47.072;15.132;2023-05-02T12:23:34;96883.00;;;17.78;62.91
20930;BME280;21895;47.072;15.132;2023-05-02T12:26:24;96889.00;;;17.68;62.52
20930;BME280;21895;47.072;15.132;2023-05-02T12:28:54;96883.00;;;17.54;63.08
20930;BME280;21895;47.072;15.132;2023-05-02T12:31:22;96886.00;;;17.51;64.53
20930;BME280;21895;47.072;15.132;2023-05-02T12:33:49;96896.00;;;17.43;63.89
20930;BME280;21895;47.072;15.132;2023-05-02T12:36:18;96895.00;;;17.35;63.89
20930;BME280;21895;47.072;15.132;2023-05-02T12:38:52;96900.00;;;17.12;63.58
20930;BME280;21895;47.072;15.132;2023-05-02T12:41:36;96897.00;;;17.03;64.46
20930;BME280;21895;47.072;15.132;2023-05-02T12:44:04;96898.00;;;16.99;65.80
20930;BME280;21895;47.072;15.132;2023-05-02T12:46:31;96900.00;;;16.99;64.75
20930;BME280;21895;47.072;15.132;2023-05-02T12:49:06;96903.00;;;17.02;64.20
20930;BME280;21895;47.072;15.132;2023-05-02T12:51:34;96906.00;;;16.96;64.21
20930;BME280;21895;47.072;15.132;2023-05-02T12:54:02;96912.00;;;16.99;63.04
20930;BME280;21895;47.072;15.132;2023-05-02T12:56:29;96912.00;;;16.89;64.65
20930;BME280;21895;47.072;15.132;2023-05-02T12:58:59;96926.00;;;16.77;64.66
20930;BME280;21895;47.072;15.132;2023-05-02T13:01:26;96927.00;;;16.76;65.08
20930;BME280;21895;47.072;15.132;2023-05-02T13:03:53;96924.00;;;16.75;64.96
20930;BME280;21895;47.072;15.132;2023-05-02T13:06:20;96930.00;;;16.82;66.10
20930;BME280;21895;47.072;15.132;2023-05-02T13:08:46;96938.00;;;16.80;65.28
20930;BME280;21895;47.072;15.132;2023-05-02T13:11:13;96934.00;;;16.73;65.22
20930;BME280;21895;47.072;15.132;2023-05-02T13:13:39;96934.00;;;16.74;65.57
20930;BME280;21895;47.072;15.132;2023-05-02T13:16:07;96939.00;;;16.67;66.73
20930;BME280;21895;47.072;15.132;2023-05-02T13:18:33;96943.00;;;16.73;65.74
20930;BME280;21895;47.072;15.132;2023-05-02T13:21:00;96934.00;;;16.61;64.95
20930;BME280;21895;47.072;15.132;2023-05-02T13:23:26;96928.00;;;16.70;65.76
20930;BME280;21895;47.072;15.132;2023-05-02T13:25:53;96935.00;;;16.65;67.27
20930;BME280;21895;47.072;15.132;2023-05-02T13:28:20;96936.00;;;16.62;67.41